Time;durP1;ratioP1;P1;durP2;ratioP2;P2;SDS_P1;SDS_P2;PMS_P1;PMS_P2;Temp;Humidity;BMP_temperature;BMP_pressure;BME280_temperature;BME280_humidity;BME280_pressure;Samples;Min_cycle;Max_cycle;Signal;HPM_P1;HPM_P2
2022/10/18 00:00:02;;;;;;;7.93;6.78;;;;;;;21.94;62.15;99946.22;2070904;28;20426;-67
2022/10/18 00:01:04;;;;;;;8.25;6.50;;;;;;;21.94;62.38;99945.38;2070617;28;20045;-66
2022/10/18 00:02:05;;;;;;;7.50;5.88;;;;;;;21.93;62.28;99949.94;2068724;28;20057;-67
2022/10/18 00:03:07;;;;;;;7.75;6.97;;;;;;;21.93;62.37;99951.81;2070501;28;20053;-68
2022/10/18 00:04:08;;;;;;;9.23;7.32;;;;;;;21.93;62.12;99947.25;2070745;28;20053;-67
2022/10/18 00:05:09;;;;;;;8.13;6.53;;;;;;;21.94;62.29;99942.69;2075442;28;20045;-66
2022/10/18 00:06:10;;;;;;;8.02;6.57;;;;;;;21.94;62.16;99950.78;2067135;28;20053;-66
2022/10/18 00:07:12;;;;;;;11.98;7.05;;;;;;;21.93;62.20;99947.25;2069727;28;20097;-67
2022/10/18 00:08:13;;;;;;;8.00;6.38;;;;;;;21.94;62.22;99946.22;2066805;28;20120;-65
2022/10/18 00:09:16;;;;;;;10.45;7.47;;;;;;;21.94;62.32;99954.31;2066966;28;20049;-65
2022/10/18 00:10:18;;;;;;;9.90;6.50;;;;;;;21.95;62.33;99950.56;2066136;28;20059;-65
2022/10/18 00:11:20;;;;;;;12.23;7.25;;;;;;;21.92;62.37;99940.16;2068370;28;20062;-65
2022/10/18 00:12:21;;;;;;;11.10;7.10;;;;;;;21.91;62.41;99943.91;2069329;28;20054;-66
2022/10/18 00:13:23;;;;;;;9.57;7.03;;;;;;;21.93;62.20;99944.56;2066801;28;20131;-67
2022/10/18 00:14:25;;;;;;;8.38;6.90;;;;;;;21.92;62.28;99940.16;2069697;28;20086;-67
2022/10/18 00:15:27;;;;;;;9.13;6.90;;;;;;;21.92;62.19;99936.63;2067175;28;20053;-67
2022/10/18 00:16:28;;;;;;;6.70;5.85;;;;;;;21.94;62.26;99937.28;2070811;28;20058;-66
2022/10/18 00:17:30;;;;;;;8.10;6.72;;;;;;;21.92;62.29;99934.75;2072550;28;20057;-66
2022/10/18 00:18:30;;;;;;;8.65;6.70;;;;;;;21.92;62.31;99933.91;2067632;28;20056;-66
2022/10/18 00:19:32;;;;;;;7.40;6.50;;;;;;;21.92;62.34;99939.31;2070042;28;20053;-67
2022/10/18 00:20:33;;;;;;;8.13;6.40;;;;;;;21.92;62.29;99932.06;2069268;28;20503;-66
2022/10/18 00:21:35;;;;;;;9.73;7.00;;;;;;;21.92;62.47;99937.44;2068984;28;20054;-66
2022/10/18 00:22:38;;;;;;;8.15;6.88;;;;;;;21.92;62.33;99929.34;2069016;28;20284;-66
2022/10/18 00:23:40;;;;;;;9.77;7.20;;;;;;;21.93;62.44;99930.22;2068257;28;20045;-65
2022/10/18 00:24:40;;;;;;;7.35;5.95;;;;;;;21.93;62.47;99932.91;2067073;28;20151;-66
2022/10/18 00:25:42;;;;;;;7.53;6.72;;;;;;;21.92;62.12;99932.06;2068055;28;20536;-66
2022/10/18 00:26:43;;;;;;;7.53;6.05;;;;;;;21.91;62.22;99927.69;2069819;28;20482;-67
2022/10/18 00:27:45;;;;;;;7.93;5.97;;;;;;;21.92;62.14;99926.66;2070403;28;20423;-65
2022/10/18 00:28:49;;;;;;;9.30;6.72;;;;;;;21.91;62.37;99927.69;2071872;28;20517;-66
2022/10/18 00:29:53;;;;;;;7.55;6.22;;;;;;;21.92;62.25;99928.53;2072580;28;20092;-66
2022/10/18 00:30:54;;;;;;;7.75;6.78;;;;;;;21.91;62.40;99924.16;2076847;28;20476;-67
2022/10/18 00:31:56;;;;;;;9.80;6.68;;;;;;;21.91;62.15;99919.59;2073374;28;20054;-67
2022/10/18 00:32:57;;;;;;;8.38;6.50;;;;;;;21.92;62.30;99928.53;2075904;28;20067;-66
2022/10/18 00:34:01;;;;;;;8.52;7.55;;;;;;;21.91;62.19;99921.47;2071407;28;20617;-67
2022/10/18 00:35:03;;;;;;;7.13;5.82;;;;;;;21.89;62.31;99918.94;2067738;28;20050;-66
2022/10/18 00:36:06;;;;;;;8.88;6.78;;;;;;;21.89;62.45;99918.94;2067328;28;20279;-66
2022/10/18 00:37:06;;;;;;;8.30;6.50;;;;;;;21.89;62.53;99918.94;2069195;28;20046;-67
2022/10/18 00:38:08;;;;;;;8.05;5.85;;;;;;;21.89;62.21;99916.22;2071286;28;20060;-66
2022/10/18 00:39:14;;;;;;;8.82;6.68;;;;;;;21.90;62.17;99914.38;2074847;28;20049;-67
2022/10/18 00:40:16;;;;;;;7.90;6.53;;;;;;;21.88;62.46;99916.44;2071663;28;20495;-66
2022/10/18 00:41:19;;;;;;;8.48;6.30;;;;;;;21.89;62.32;99913.53;2070379;28;20053;-66
2022/10/18 00:42:24;;;;;;;7.95;6.40;;;;;;;21.89;62.25;99918.09;2071861;28;20089;-67
2022/10/18 00:43:24;;;;;;;7.95;6.00;;;;;;;21.88;62.49;99917.28;2069959;28;20061;-67
2022/10/18 00:45:01;;;;;;;7.85;5.90;;;;;;;21.85;62.36;99917.66;2069881;28;20060;-66
2022/10/18 00:46:03;;;;;;;8.70;7.03;;;;;;;21.83;62.56;99914.31;2071191;28;20684;-66
2022/10/18 00:47:08;;;;;;;7.35;5.78;;;;;;;21.87;62.35;99910.22;2070279;28;20076;-67
2022/10/18 00:48:13;;;;;;;6.60;5.95;;;;;;;21.87;62.56;99915.63;2071790;28;20049;-67
2022/10/18 00:49:17;;;;;;;7.63;6.10;;;;;;;21.88;62.37;99908.34;2066926;28;20057;-66
2022/10/18 00:50:21;;;;;;;7.15;5.93;;;;;;;21.88;62.36;99914.56;2066738;28;20054;-65
2022/10/18 00:51:24;;;;;;;11.85;6.85;;;;;;;21.87;62.39;99912.91;2074485;28;20081;-67
2022/10/18 00:52:40;;;;;;;8.82;6.30;;;;;;;21.89;62.19;99907.31;2070601;28;20665;-67
2022/10/18 00:53:41;;;;;;;7.10;6.07;;;;;;;21.86;62.49;99913.94;2073169;28;20046;-66
2022/10/18 00:54:45;;;;;;;7.05;6.32;;;;;;;21.87;62.46;99912.91;2069808;28;20049;-65
2022/10/18 00:55:46;;;;;;;6.88;5.50;;;;;;;21.87;62.28;99904.81;2070032;28;20111;-65
2022/10/18 00:56:48;;;;;;;8.20;6.10;;;;;;;21.88;62.38;99905.66;2068655;28;20478;-66
2022/10/18 00:57:49;;;;;;;8.73;6.10;;;;;;;21.88;62.26;99906.47;2069492;28;20049;-66
2022/10/18 00:58:52;;;;;;;7.93;5.32;;;;;;;21.88;62.50;99911.03;2070907;28;20099;-67
2022/10/18 00:59:53;;;;;;;7.75;5.57;;;;;;;21.89;62.32;99912.72;2073344;28;20049;-67
2022/10/18 01:00:57;;;;;;;6.93;5.35;;;;;;;21.89;62.34;99907.31;2068388;28;20049;-66
2022/10/18 01:01:57;;;;;;;6.97;6.13;;;;;;;21.89;62.24;99907.31;2071575;28;20423;-66
2022/10/18 01:02:59;;;;;;;7.40;5.80;;;;;;;21.89;62.40;99907.31;2070502;28;20078;-66
2022/10/18 01:04:00;;;;;;;9.48;5.05;;;;;;;21.87;62.21;99904.81;2068717;28;20049;-67
2022/10/18 01:05:02;;;;;;;8.07;6.25;;;;;;;21.88;62.21;99911.03;2065250;28;20042;-66
2022/10/18 01:06:03;;;;;;;7.07;5.72;;;;;;;21.88;62.22;99911.88;2070967;28;20419;-66
2022/10/18 01:07:20;;;;;;;8.70;5.88;;;;;;;21.88;62.25;99911.03;2069397;28;20116;-67
2022/10/18 01:09:06;;;;;;;6.63;5.47;;;;;;;21.80;62.38;99910.13;2069958;28;20049;-66
2022/10/18 01:10:19;;;;;;;7.70;6.22;;;;;;;21.79;62.54;99908.47;2052146;28;20050;-65
2022/10/18 01:11:37;;;;;;;6.13;5.40;;;;;;;21.81;62.49;99910.97;2071436;28;20052;-66
2022/10/18 01:12:52;;;;;;;7.72;6.18;;;;;;;21.79;62.61;99908.47;2072202;28;20487;-67
2022/10/18 01:14:02;;;;;;;6.07;5.32;;;;;;;21.82;62.66;99908.09;2069491;28;20049;-66
2022/10/18 01:15:10;;;;;;;9.45;5.47;;;;;;;21.83;62.60;99906.22;2066844;28;20067;-66
2022/10/18 01:16:20;;;;;;;6.10;5.35;;;;;;;21.83;62.60;99914.31;2071035;28;20053;-65
2022/10/18 01:17:31;;;;;;;7.85;5.45;;;;;;;21.83;62.73;99906.22;2069315;28;20080;-66
2022/10/18 01:18:39;;;;;;;7.25;5.43;;;;;;;21.82;62.49;99908.09;2065881;28;20046;-65
2022/10/18 01:20:06;;;;;;;7.13;5.95;;;;;;;21.80;62.55;99909.31;2067730;28;20053;-67
2022/10/18 01:21:22;;;;;;;7.13;5.13;;;;;;;21.80;62.43;99909.31;2065233;28;21671;-65
2022/10/18 01:22:27;;;;;;;6.07;4.78;;;;;;;21.80;62.58;99903.91;2069069;28;20049;-65
2022/10/18 01:23:45;;;;;;;8.85;6.70;;;;;;;21.80;62.63;99907.44;2068391;28;20502;-67
2022/10/18 01:24:59;;;;;;;7.18;5.60;;;;;;;21.80;62.51;99909.31;2068606;28;20057;-67
2022/10/18 01:26:17;;;;;;;8.45;6.22;;;;;;;21.79;62.60;99896.84;2069415;28;21201;-66
2022/10/18 01:27:34;;;;;;;6.97;5.75;;;;;;;21.79;62.45;99896.84;2070587;28;20091;-66
2022/10/18 01:28:53;;;;;;;7.68;5.82;;;;;;;21.81;62.30;99892.91;2066843;28;20045;-66
2022/10/18 01:30:10;;;;;;;7.43;5.57;;;;;;;21.78;62.77;99895.16;2069755;28;20050;-67
2022/10/18 01:31:18;;;;;;;7.45;6.10;;;;;;;21.79;62.61;99891.44;2066376;28;20075;-66
2022/10/18 01:32:23;;;;;;;6.85;5.55;;;;;;;21.81;62.55;99890.22;2069207;28;20106;-66
2022/10/18 01:33:34;;;;;;;7.05;5.20;;;;;;;21.80;62.45;99891.22;2066635;28;20164;-67
2022/10/18 01:34:37;;;;;;;8.02;5.40;;;;;;;21.80;62.36;99893.94;2066504;28;20061;-65
2022/10/18 01:35:44;;;;;;;5.88;5.25;;;;;;;21.81;62.44;99890.22;2069312;28;20100;-66
2022/10/18 01:36:50;;;;;;;6.43;5.57;;;;;;;21.82;62.49;99893.75;2069517;28;20042;-67
2022/10/18 01:37:54;;;;;;;6.00;4.75;;;;;;;21.83;62.32;99892.72;2067610;28;20054;-66
2022/10/18 01:39:00;;;;;;;7.30;5.45;;;;;;;21.83;62.24;99893.53;2067694;28;20061;-65
2022/10/18 01:40:05;;;;;;;8.57;6.00;;;;;;;21.83;62.47;99892.72;2068645;28;20067;-65
2022/10/18 01:41:09;;;;;;;6.57;5.15;;;;;;;21.82;62.25;99902.69;2068714;28;20064;-67
2022/10/18 01:42:14;;;;;;;4.95;4.43;;;;;;;21.82;62.55;99891.06;2070558;28;20988;-66
2022/10/18 01:43:18;;;;;;;6.30;5.07;;;;;;;21.81;62.54;99890.22;2068537;28;20107;-66
2022/10/18 01:44:23;;;;;;;6.20;5.10;;;;;;;21.83;62.48;99890.00;2066975;28;20111;-66
2022/10/18 01:45:26;;;;;;;8.68;6.22;;;;;;;21.82;62.31;99888.34;2073348;28;20053;-66
2022/10/18 01:46:29;;;;;;;6.30;5.20;;;;;;;21.81;62.38;99884.81;2071021;28;20049;-67
2022/10/18 01:47:31;;;;;;;5.53;5.03;;;;;;;21.82;62.42;99883.78;2069717;28;20664;-65
2022/10/18 01:48:33;;;;;;;6.05;5.10;;;;;;;21.81;62.49;99881.25;2068558;28;20061;-67
2022/10/18 01:49:34;;;;;;;8.20;5.78;;;;;;;21.83;62.27;99884.59;2065700;28;20188;-67
2022/10/18 01:50:35;;;;;;;6.55;5.18;;;;;;;21.82;62.23;99880.25;2064997;28;20645;-66
2022/10/18 01:51:37;;;;;;;7.03;5.30;;;;;;;21.84;62.15;99888.97;2068359;28;20144;-66
2022/10/18 01:52:47;;;;;;;6.90;5.03;;;;;;;21.81;62.26;99883.97;2068313;28;20111;-65
2022/10/18 01:53:48;;;;;;;6.97;6.28;;;;;;;21.81;62.20;99886.66;2070639;28;20084;-66
2022/10/18 01:54:49;;;;;;;5.80;5.20;;;;;;;21.81;62.30;99884.81;2065946;28;20053;-67
2022/10/18 01:55:57;;;;;;;6.38;5.20;;;;;;;21.84;62.24;99883.56;2071767;28;20205;-67
2022/10/18 01:57:03;;;;;;;8.32;5.65;;;;;;;21.82;62.39;99881.06;2067163;28;20045;-67
2022/10/18 01:58:13;;;;;;;7.10;6.05;;;;;;;21.79;62.47;99873.38;2067771;28;20458;-65
2022/10/18 01:59:30;;;;;;;5.18;4.55;;;;;;;21.79;62.25;99880.63;2064649;28;20061;-67
2022/10/18 02:00:37;;;;;;;6.57;5.68;;;;;;;21.78;62.51;99879.78;2068477;28;20282;-65
2022/10/18 02:01:51;;;;;;;7.35;5.47;;;;;;;21.79;62.41;99878.78;2065405;28;20634;-65
2022/10/18 02:02:56;;;;;;;6.97;4.85;;;;;;;21.78;62.44;99871.69;2069208;28;20552;-67
2022/10/18 02:04:06;;;;;;;7.82;5.25;;;;;;;21.78;62.46;99873.56;2064245;28;20054;-66
2022/10/18 02:05:17;;;;;;;6.13;4.97;;;;;;;21.78;62.43;99874.38;2065236;28;20257;-65
2022/10/18 02:06:24;;;;;;;7.63;5.65;;;;;;;21.78;62.30;99874.38;2066416;28;20605;-67
2022/10/18 02:07:31;;;;;;;8.07;5.07;;;;;;;21.78;62.53;99871.69;2068763;28;20523;-66
2022/10/18 02:08:37;;;;;;;7.80;4.90;;;;;;;21.79;62.43;99869.84;2069784;28;20085;-65
2022/10/18 02:09:45;;;;;;;5.78;4.80;;;;;;;21.79;62.44;99877.94;2062938;28;20470;-66
2022/10/18 02:10:50;;;;;;;6.90;5.43;;;;;;;21.80;62.24;99883.13;2067136;28;20191;-66
2022/10/18 02:11:54;;;;;;;7.05;5.05;;;;;;;21.79;62.30;99881.47;2069565;28;20062;-67
2022/10/18 02:12:58;;;;;;;5.30;4.80;;;;;;;21.79;62.29;99878.78;2068104;28;20050;-66
2022/10/18 02:14:05;;;;;;;6.82;4.90;;;;;;;21.79;62.14;99886.03;2069352;28;20042;-65
2022/10/18 02:15:09;;;;;;;6.28;5.13;;;;;;;21.79;62.46;99881.47;2068017;28;20227;-65
2022/10/18 02:16:15;;;;;;;6.00;5.40;;;;;;;21.81;62.40;99889.38;2070172;28;20107;-64
2022/10/18 02:17:21;;;;;;;5.00;4.25;;;;;;;21.79;62.51;99884.16;2063343;28;20077;-66
2022/10/18 02:18:27;;;;;;;6.20;5.47;;;;;;;21.78;62.33;99881.66;2064125;28;20112;-66
2022/10/18 02:19:33;;;;;;;6.40;4.97;;;;;;;21.77;62.47;99875.41;2062636;28;20542;-65
2022/10/18 02:20:37;;;;;;;5.88;4.75;;;;;;;21.78;62.51;99878.94;2069654;28;20057;-66
2022/10/18 02:21:42;;;;;;;5.80;4.95;;;;;;;21.78;62.44;99873.56;2068213;28;20466;-65
2022/10/18 02:22:44;;;;;;;5.72;4.78;;;;;;;21.79;62.46;99884.16;2071170;28;20045;-65
2022/10/18 02:23:47;;;;;;;5.47;4.93;;;;;;;21.79;62.34;99880.63;2067945;28;20052;-64
2022/10/18 02:24:52;;;;;;;7.30;5.53;;;;;;;21.80;62.18;99874.19;2072225;28;20491;-65
2022/10/18 02:25:54;;;;;;;6.45;5.30;;;;;;;21.79;62.42;99877.94;2069929;28;20053;-66
2022/10/18 02:26:54;;;;;;;5.50;4.47;;;;;;;21.79;62.16;99875.25;2068546;28;20038;-64
2022/10/18 02:27:57;;;;;;;6.97;4.80;;;;;;;21.79;62.20;99875.25;2069856;28;20296;-65
2022/10/18 02:28:57;;;;;;;7.30;5.07;;;;;;;21.78;62.14;99877.06;2067323;28;20232;-65
2022/10/18 02:29:59;;;;;;;4.72;4.20;;;;;;;21.78;62.44;99874.38;2066403;28;20053;-66
2022/10/18 02:31:09;;;;;;;6.63;4.65;;;;;;;21.80;62.09;99876.91;2071121;28;20502;-66
2022/10/18 02:32:16;;;;;;;6.22;5.05;;;;;;;21.78;62.39;99865.44;2070438;28;20537;-65
2022/10/18 02:33:28;;;;;;;5.53;4.70;;;;;;;21.77;62.37;99874.59;2066986;28;20546;-65
2022/10/18 02:34:35;;;;;;;6.88;4.50;;;;;;;21.77;62.21;99864.63;2067230;28;20330;-66
2022/10/18 02:35:40;;;;;;;6.03;4.55;;;;;;;21.78;62.42;99862.75;2070415;28;20045;-66
2022/10/18 02:36:45;;;;;;;6.10;4.38;;;;;;;21.78;62.44;99865.44;2070129;28;20108;-65
2022/10/18 02:37:48;;;;;;;5.07;4.57;;;;;;;21.78;62.48;99860.03;2070624;28;20565;-65
2022/10/18 02:38:54;;;;;;;5.90;4.18;;;;;;;21.78;62.14;99860.03;2068857;28;20128;-65
2022/10/18 02:39:55;;;;;;;6.30;4.63;;;;;;;21.77;62.47;99861.09;2070148;28;20518;-65
2022/10/18 02:40:57;;;;;;;7.43;5.28;;;;;;;21.77;62.31;99861.91;2069884;28;20340;-65
2022/10/18 02:41:58;;;;;;;4.97;3.95;;;;;;;21.78;62.29;99865.44;2069951;28;20117;-66
2022/10/18 02:43:00;;;;;;;5.70;5.10;;;;;;;21.77;62.19;99864.63;2068690;28;20053;-65
2022/10/18 02:44:01;;;;;;;6.07;4.57;;;;;;;21.78;62.29;99865.44;2068730;28;20049;-66
2022/10/18 02:45:03;;;;;;;7.53;5.72;;;;;;;21.78;62.35;99866.28;2069519;28;20054;-66
2022/10/18 02:46:04;;;;;;;6.78;5.25;;;;;;;21.79;62.37;99870.66;2069518;28;20045;-66
2022/10/18 02:47:08;;;;;;;6.30;4.97;;;;;;;21.78;62.27;99871.69;2069182;28;20057;-65
2022/10/18 02:48:09;;;;;;;4.43;4.00;;;;;;;21.77;62.23;99867.31;2065711;28;20057;-64
2022/10/18 02:49:12;;;;;;;5.60;4.47;;;;;;;21.77;62.15;99864.63;2067949;28;20042;-66
2022/10/18 02:50:13;;;;;;;5.85;4.63;;;;;;;21.78;62.19;99868.97;2069225;28;20057;-66
2022/10/18 02:51:16;;;;;;;5.55;4.57;;;;;;;21.77;62.39;99861.09;2069348;28;20127;-66
2022/10/18 02:52:16;;;;;;;5.75;4.38;;;;;;;21.77;62.45;99871.88;2071618;28;21560;-67
2022/10/18 02:53:18;;;;;;;5.20;4.57;;;;;;;21.77;62.19;99870.03;2069772;28;20055;-66
2022/10/18 02:54:19;;;;;;;6.97;4.10;;;;;;;21.77;62.45;99875.41;2071978;28;20064;-66
2022/10/18 02:55:21;;;;;;;6.55;5.45;;;;;;;21.77;62.37;99871.88;2068691;28;20088;-65
2022/10/18 02:56:21;;;;;;;5.32;4.20;;;;;;;21.77;62.40;99863.78;2070980;28;20083;-65
2022/10/18 02:57:23;;;;;;;5.68;4.60;;;;;;;21.78;62.19;99868.16;2068882;28;20395;-67
2022/10/18 02:58:24;;;;;;;6.45;4.60;;;;;;;21.76;62.24;99868.34;2067717;28;20057;-66
2022/10/18 02:59:26;;;;;;;5.07;3.85;;;;;;;21.77;62.38;99866.50;2063494;28;20538;-66
2022/10/18 03:00:26;;;;;;;4.97;4.22;;;;;;;21.77;62.35;99869.19;2067951;28;20053;-65
2022/10/18 03:01:28;;;;;;;4.85;4.32;;;;;;;21.76;62.49;99868.34;2069699;28;20576;-66
2022/10/18 03:02:29;;;;;;;5.70;4.53;;;;;;;21.77;62.44;99863.78;2066980;28;20454;-67
2022/10/18 03:03:31;;;;;;;;;;;;;;;21.67;62.74;99866.81;2068254;28;20045;-67
2022/10/18 03:04:33;;;;;;;;;;;;;;;21.58;62.83;99870.66;2066713;28;19975;-66
2022/10/18 03:05:34;;;;;;;4.72;3.70;;;;;;;21.64;62.82;99875.28;2068707;28;19936;-67
2022/10/18 03:06:35;;;;;;;6.22;4.40;;;;;;;21.68;62.64;99867.66;2069876;28;20492;-66
2022/10/18 03:07:37;;;;;;;7.72;4.57;;;;;;;21.70;62.51;99869.09;2071142;28;20058;-66
2022/10/18 03:08:37;;;;;;;5.45;4.75;;;;;;;;;;2072670;28;20666;-65
2022/10/18 03:09:39;;;;;;;5.40;4.40;;;;;;;21.73;62.71;99865.19;2071599;28;20050;-65
2022/10/18 03:10:42;;;;;;;4.88;3.90;;;;;;;21.74;62.31;99866.88;2070063;28;20583;-67
2022/10/18 03:11:44;;;;;;;5.85;4.47;;;;;;;21.75;62.39;99871.25;2067499;28;20428;-67
2022/10/18 03:12:45;;;;;;;5.82;4.95;;;;;;;21.75;62.32;99865.84;2070742;28;20049;-66
2022/10/18 03:13:46;;;;;;;6.50;4.72;;;;;;;21.75;62.50;99863.97;2068984;28;20049;-66
2022/10/18 03:14:47;;;;;;;9.43;5.20;;;;;;;21.76;62.51;99870.22;2072127;28;20103;-66
2022/10/18 03:15:49;;;;;;;5.10;4.10;;;;;;;21.75;62.39;99869.38;2068310;28;20050;-67
2022/10/18 03:16:50;;;;;;;5.22;3.72;;;;;;;21.75;62.30;99869.38;2070854;28;20038;-65
2022/10/18 03:17:51;;;;;;;;;;;;;;;21.62;62.71;99867.41;2069010;28;20042;-67
2022/10/18 03:18:52;;;;;;;;;;;;;;;21.54;62.88;99870.22;2067668;28;19936;-67
2022/10/18 03:19:55;;;;;;;4.97;4.27;;;;;;;21.60;62.88;99861.34;2069663;28;19925;-65
2022/10/18 03:20:56;;;;;;;4.78;3.92;;;;;;;21.65;62.73;99866.19;2069175;28;20438;-65
2022/10/18 03:21:57;;;;;;;5.18;4.57;;;;;;;21.68;62.71;99873.06;2071899;28;20038;-65
2022/10/18 03:22:58;;;;;;;5.30;4.53;;;;;;;21.71;62.46;99868.09;2069579;28;20403;-65
2022/10/18 03:24:00;;;;;;;4.47;4.05;;;;;;;;;;2070611;28;20057;-65
2022/10/18 03:25:00;;;;;;;6.07;4.65;;;;;;;21.73;62.44;99865.19;2061578;28;20045;-66
2022/10/18 03:26:02;;;;;;;5.25;4.15;;;;;;;;;;2068093;28;20363;-65
2022/10/18 03:27:03;;;;;;;5.00;4.38;;;;;;;21.72;62.52;99863.53;2066704;28;20189;-67
2022/10/18 03:28:05;;;;;;;4.30;3.85;;;;;;;21.73;62.22;99859.78;2069620;28;20049;-66
2022/10/18 03:29:07;;;;;;;5.93;4.25;;;;;;;;;;2066170;28;20049;-66
2022/10/18 03:30:10;;;;;;;5.90;3.95;;;;;;;;;;2067835;28;20554;-65
2022/10/18 03:31:12;;;;;;;5.32;4.15;;;;;;;;;;2071757;28;20479;-66
2022/10/18 03:32:12;;;;;;;5.82;4.40;;;;;;;21.72;62.48;99863.53;2070644;28;20049;-66
2022/10/18 03:33:14;;;;;;;4.68;3.90;;;;;;;21.72;62.27;99860.84;2067577;28;20545;-66
2022/10/18 03:34:16;;;;;;;5.95;4.82;;;;;;;21.72;62.37;99855.44;2067928;28;20053;-66
2022/10/18 03:35:19;;;;;;;5.10;3.67;;;;;;;21.73;62.51;99862.50;2067972;28;20084;-66
2022/10/18 03:36:21;;;;;;;5.38;4.13;;;;;;;21.74;62.56;99858.78;2070888;28;20521;-67
2022/10/18 03:37:22;;;;;;;4.88;4.03;;;;;;;21.71;62.27;99846.50;2070025;28;20140;-65
2022/10/18 03:38:24;;;;;;;4.80;4.18;;;;;;;21.74;62.43;99864.19;2069341;28;20495;-67
2022/10/18 03:39:25;;;;;;;5.45;3.80;;;;;;;21.70;62.40;99852.09;2067374;28;20057;-66
2022/10/18 03:40:26;;;;;;;5.32;4.53;;;;;;;21.71;62.28;99860.00;2065950;28;20054;-65
2022/10/18 03:41:27;;;;;;;5.25;4.00;;;;;;;;;;2070582;28;20107;-67
2022/10/18 03:42:29;;;;;;;5.70;4.00;;;;;;;21.72;62.24;99863.53;2070877;28;20636;-66
2022/10/18 03:43:29;;;;;;;4.95;4.00;;;;;;;21.71;62.45;99862.69;2070139;28;20057;-66
2022/10/18 03:44:31;;;;;;;5.35;4.28;;;;;;;21.72;62.38;99866.22;2070594;28;20059;-67
2022/10/18 03:45:32;;;;;;;5.63;4.50;;;;;;;21.72;62.46;99863.53;2073317;28;20057;-67
2022/10/18 03:46:33;;;;;;;7.80;4.82;;;;;;;;;;2055410;28;20054;-66
2022/10/18 03:47:34;;;;;;;5.55;4.13;;;;;;;21.71;62.27;99864.56;2062204;28;20041;-65
2022/10/18 03:48:36;;;;;;;5.65;4.53;;;;;;;21.71;62.46;99862.69;2070631;28;20050;-66
2022/10/18 03:49:37;;;;;;;4.85;4.07;;;;;;;21.71;62.40;99864.56;2063846;28;20501;-66
2022/10/18 03:50:40;;;;;;;5.50;4.32;;;;;;;21.72;62.17;99866.22;2070217;28;20085;-65
2022/10/18 03:51:41;;;;;;;3.92;3.45;;;;;;;21.69;62.28;99867.44;2069743;28;20688;-66
2022/10/18 03:52:43;;;;;;;5.40;4.28;;;;;;;21.71;62.44;99861.88;2069150;28;20053;-66
2022/10/18 03:53:43;;;;;;;6.22;4.30;;;;;;;21.70;62.18;99863.72;2071459;28;20042;-65
2022/10/18 03:54:45;;;;;;;5.72;4.07;;;;;;;21.71;62.30;99868.09;2066592;28;20329;-66
2022/10/18 03:55:50;;;;;;;4.80;3.67;;;;;;;21.71;62.22;99862.69;2069948;28;20423;-65
2022/10/18 03:56:52;;;;;;;5.15;4.03;;;;;;;21.71;62.28;99864.56;2068659;28;20046;-67
2022/10/18 03:57:52;;;;;;;5.20;4.55;;;;;;;21.70;62.35;99861.00;2072181;28;20415;-66
2022/10/18 03:58:55;;;;;;;5.80;4.00;;;;;;;21.70;62.31;99860.19;2067584;28;20052;-66
2022/10/18 03:59:56;;;;;;;6.47;4.35;;;;;;;21.71;62.12;99861.88;2075098;28;20307;-66
2022/10/18 04:00:58;;;;;;;4.63;3.65;;;;;;;21.70;62.45;99861.00;2070478;28;20072;-66
2022/10/18 04:01:59;;;;;;;4.35;3.78;;;;;;;21.71;62.31;99864.56;2071597;28;20050;-66
2022/10/18 04:03:04;;;;;;;4.43;3.88;;;;;;;21.72;62.20;99866.22;2066676;28;20057;-65
2022/10/18 04:04:05;;;;;;;6.32;4.10;;;;;;;21.68;62.53;99864.97;2068094;28;20045;-65
2022/10/18 04:05:07;;;;;;;4.35;3.58;;;;;;;21.68;62.34;99862.25;2067006;28;20042;-66
2022/10/18 04:06:10;;;;;;;5.45;4.28;;;;;;;21.68;62.07;99864.97;2069065;28;20049;-66
2022/10/18 04:07:11;;;;;;;5.30;3.90;;;;;;;21.69;62.31;99863.91;2068161;28;20077;-65
2022/10/18 04:08:13;;;;;;;4.53;3.53;;;;;;;21.68;62.31;99856.88;2063779;28;20239;-65
2022/10/18 04:09:15;;;;;;;4.22;3.72;;;;;;;21.68;62.26;99867.66;2067583;28;20322;-66
2022/10/18 04:10:15;;;;;;;5.30;3.90;;;;;;;21.69;62.21;99858.53;2070299;28;20228;-66
2022/10/18 04:11:17;;;;;;;5.90;3.90;;;;;;;21.70;62.53;99862.88;2068444;28;20050;-66
2022/10/18 04:12:18;;;;;;;4.45;3.92;;;;;;;21.70;62.23;99861.00;2070219;28;20525;-67
2022/10/18 04:13:20;;;;;;;4.35;3.63;;;;;;;21.68;62.47;99860.38;2067166;28;20053;-66
2022/10/18 04:14:21;;;;;;;4.78;4.07;;;;;;;21.69;62.44;99864.75;2064668;28;20049;-65
2022/10/18 04:15:22;;;;;;;5.25;4.45;;;;;;;21.69;62.31;99866.63;2069980;28;20329;-67
2022/10/18 04:16:23;;;;;;;5.18;3.25;;;;;;;21.68;62.48;99862.25;2069205;28;20564;-66
2022/10/18 04:17:25;;;;;;;5.15;4.20;;;;;;;21.68;62.37;99868.50;2067143;28;20119;-65
2022/10/18 04:18:26;;;;;;;6.97;4.22;;;;;;;21.68;62.32;99862.25;2066658;28;20271;-66
2022/10/18 04:19:28;;;;;;;5.03;4.00;;;;;;;21.68;62.47;99864.97;2067277;28;21131;-67
2022/10/18 04:20:29;;;;;;;4.25;3.70;;;;;;;21.68;62.26;99859.56;2068859;28;20466;-66
2022/10/18 04:21:32;;;;;;;5.22;4.50;;;;;;;21.68;62.45;99854.16;2073210;28;20045;-65
2022/10/18 04:22:33;;;;;;;4.90;3.58;;;;;;;21.67;62.33;99858.69;2069350;28;20514;-67
2022/10/18 04:23:34;;;;;;;3.90;3.28;;;;;;;21.68;62.43;99862.25;2068990;28;20119;-65
2022/10/18 04:24:35;;;;;;;4.22;3.55;;;;;;;21.67;62.30;99861.41;2068350;28;20565;-66
2022/10/18 04:25:37;;;;;;;5.05;3.63;;;;;;;21.67;62.17;99860.56;2070595;28;20054;-67
2022/10/18 04:26:38;;;;;;;3.75;3.28;;;;;;;21.67;62.47;99860.56;2066610;28;20078;-66
2022/10/18 04:27:40;;;;;;;8.55;4.53;;;;;;;21.67;62.45;99863.28;2070914;28;20510;-67
2022/10/18 04:28:41;;;;;;;3.78;3.28;;;;;;;21.67;62.51;99864.09;2069441;28;20147;-65
2022/10/18 04:29:42;;;;;;;5.00;3.63;;;;;;;21.67;62.30;99865.97;2067955;28;20075;-65
2022/10/18 04:30:48;;;;;;;3.75;3.28;;;;;;;21.67;62.41;99860.56;2069720;28;20061;-67
2022/10/18 04:31:50;;;;;;;4.78;3.70;;;;;;;21.66;62.51;99865.16;2063366;28;20046;-65
2022/10/18 04:32:51;;;;;;;3.95;3.28;;;;;;;21.64;62.32;99857.22;2066495;28;20206;-66
2022/10/18 04:33:53;;;;;;;4.72;3.92;;;;;;;21.66;62.52;99865.16;2070392;28;20077;-66
2022/10/18 04:34:54;;;;;;;4.80;3.83;;;;;;;21.66;62.46;99865.16;2069126;28;20046;-66
2022/10/18 04:35:56;;;;;;;6.72;4.00;;;;;;;21.67;62.25;99865.97;2072635;28;20049;-66
2022/10/18 04:36:58;;;;;;;4.05;3.58;;;;;;;21.67;62.32;99871.38;2068501;28;20134;-66
2022/10/18 04:38:00;;;;;;;5.75;3.55;;;;;;;21.66;62.40;99864.31;2070400;28;20100;-66
2022/10/18 04:39:00;;;;;;;4.20;3.80;;;;;;;21.66;62.33;99862.44;2069750;28;20533;-65
2022/10/18 04:40:03;;;;;;;4.97;3.63;;;;;;;21.66;62.54;99862.44;2071174;28;20211;-66
2022/10/18 04:41:04;;;;;;;3.90;3.45;;;;;;;21.66;62.48;99861.63;2069736;28;20183;-66
2022/10/18 04:42:05;;;;;;;3.80;3.40;;;;;;;21.66;62.41;99867.00;2072408;28;20227;-65
2022/10/18 04:43:06;;;;;;;5.53;3.95;;;;;;;21.66;62.15;99862.44;2070912;28;20049;-66
2022/10/18 04:44:08;;;;;;;3.55;3.25;;;;;;;21.65;62.33;99863.47;2072188;28;20618;-66
2022/10/18 04:45:10;;;;;;;6.75;3.33;;;;;;;21.66;62.32;99867.84;2073624;28;20410;-65
2022/10/18 04:46:11;;;;;;;4.60;3.42;;;;;;;21.65;62.40;99855.38;2071019;28;20631;-65
2022/10/18 04:47:12;;;;;;;4.15;3.53;;;;;;;21.63;62.52;99871.75;2067606;28;20598;-67
2022/10/18 04:48:14;;;;;;;5.10;4.20;;;;;;;21.63;62.42;99865.53;2068518;28;21730;-66
2022/10/18 04:49:15;;;;;;;3.55;3.25;;;;;;;21.64;62.61;99862.63;2068836;28;20629;-66
2022/10/18 04:50:17;;;;;;;4.43;3.30;;;;;;;21.64;62.57;99861.78;2071020;28;20294;-65
2022/10/18 04:51:18;;;;;;;5.63;3.92;;;;;;;21.63;62.49;99866.38;2072712;28;20057;-66
2022/10/18 04:52:21;;;;;;;5.35;3.55;;;;;;;21.64;62.57;99861.78;2067011;28;20513;-67
2022/10/18 04:53:22;;;;;;;5.50;3.65;;;;;;;21.63;62.43;99860.97;2063044;28;20049;-65
2022/10/18 04:54:23;;;;;;;4.93;3.47;;;;;;;21.64;62.43;99861.78;2072364;28;20055;-66
2022/10/18 04:55:24;;;;;;;4.38;3.55;;;;;;;21.63;62.51;99855.56;2066476;28;20511;-66
2022/10/18 04:56:26;;;;;;;4.35;3.33;;;;;;;21.62;62.40;99858.47;2072274;28;20045;-66
2022/10/18 04:57:27;;;;;;;5.07;3.40;;;;;;;21.63;62.57;99865.53;2069936;28;20879;-65
2022/10/18 04:58:29;;;;;;;3.83;3.38;;;;;;;21.63;62.66;99849.34;2067267;28;20053;-66
2022/10/18 04:59:29;;;;;;;4.45;3.53;;;;;;;21.63;62.53;99862.84;2067826;28;20045;-66
2022/10/18 05:00:31;;;;;;;5.53;3.65;;;;;;;21.63;62.22;99860.97;2068790;28;20050;-65
2022/10/18 05:01:32;;;;;;;6.45;4.00;;;;;;;21.63;62.62;99866.38;2067826;28;20576;-66